sensor_id;sensor_type;location;lat;lon;timestamp;pressure;altitude;pressure_sealevel;temperature;humidity
19827;BME280;10074;52.018;4.726;2022-09-21T00:04:03;46303.47;;;-144.79;100.00
19827;BME280;10074;52.018;4.726;2022-09-21T00:09:03;46313.50;;;-144.79;100.00
19827;BME280;10074;52.018;4.726;2022-09-21T00:14:11;46313.50;;;-144.79;100.00
19827;BME280;10074;52.018;4.726;2022-09-21T00:19:12;46307.47;;;-144.79;100.00
19827;BME280;10074;52.018;4.726;2022-09-21T00:24:12;46311.50;;;-144.79;100.00
19827;BME280;10074;52.018;4.726;2022-09-21T00:29:12;46315.50;;;-144.79;100.00
19827;BME280;10074;52.018;4.726;2022-09-21T00:34:13;46315.50;;;-144.79;100.00
19827;BME280;10074;52.018;4.726;2022-09-21T00:39:13;46315.50;;;-144.79;100.00
19827;BME280;10074;52.018;4.726;2022-09-21T00:44:27;46315.50;;;-144.79;100.00
19827;BME280;10074;52.018;4.726;2022-09-21T00:49:28;46307.47;;;-144.79;100.00
19827;BME280;10074;52.018;4.726;2022-09-21T00:59:46;46319.50;;;-144.79;100.00
19827;BME280;10074;52.018;4.726;2022-09-21T01:04:48;46319.50;;;-144.79;100.00
19827;BME280;10074;52.018;4.726;2022-09-21T01:09:52;46315.50;;;-144.79;100.00
19827;BME280;10074;52.018;4.726;2022-09-21T01:30:12;46309.47;;;-144.79;100.00
19827;BME280;10074;52.018;4.726;2022-09-21T01:35:28;46307.47;;;-144.79;100.00
19827;BME280;10074;52.018;4.726;2022-09-21T01:40:42;46301.47;;;-144.79;100.00
19827;BME280;10074;52.018;4.726;2022-09-21T01:45:48;46303.47;;;-144.79;100.00
19827;BME280;10074;52.018;4.726;2022-09-21T01:50:55;46307.47;;;-144.79;100.00
19827;BME280;10074;52.018;4.726;2022-09-21T01:56:00;46299.47;;;-144.79;100.00
19827;BME280;10074;52.018;4.726;2022-09-21T02:01:05;46295.44;;;-144.79;100.00
19827;BME280;10074;52.018;4.726;2022-09-21T02:06:08;46291.44;;;-144.79;100.00
19827;BME280;10074;52.018;4.726;2022-09-21T02:11:10;46291.44;;;-144.79;100.00
19827;BME280;10074;52.018;4.726;2022-09-21T02:21:47;46287.44;;;-144.79;100.00
19827;BME280;10074;52.018;4.726;2022-09-21T02:37:48;46277.41;;;-144.79;100.00
19827;BME280;10074;52.018;4.726;2022-09-21T02:43:06;46289.44;;;-144.79;100.00
19827;BME280;10074;52.018;4.726;2022-09-21T02:48:12;46275.41;;;-144.79;100.00
19827;BME280;10074;52.018;4.726;2022-09-21T02:53:18;46269.38;;;-144.79;100.00
19827;BME280;10074;52.018;4.726;2022-09-21T02:58:21;46273.38;;;-144.79;100.00
19827;BME280;10074;52.018;4.726;2022-09-21T03:03:24;46275.41;;;-144.79;100.00
19827;BME280;10074;52.018;4.726;2022-09-21T03:08:25;46273.38;;;-144.79;100.00
19827;BME280;10074;52.018;4.726;2022-09-21T03:13:25;46267.38;;;-144.79;100.00
19827;BME280;10074;52.018;4.726;2022-09-21T03:18:25;46267.38;;;-144.79;100.00
19827;BME280;10074;52.018;4.726;2022-09-21T03:23:26;46267.38;;;-144.79;100.00
19827;BME280;10074;52.018;4.726;2022-09-21T03:28:26;46267.38;;;-144.79;100.00
19827;BME280;10074;52.018;4.726;2022-09-21T03:33:27;46263.38;;;-144.79;100.00
19827;BME280;10074;52.018;4.726;2022-09-21T03:38:27;46265.38;;;-144.79;100.00
19827;BME280;10074;52.018;4.726;2022-09-21T03:43:27;46259.34;;;-144.79;100.00
19827;BME280;10074;52.018;4.726;2022-09-21T03:48:27;46263.38;;;-144.79;100.00
19827;BME280;10074;52.018;4.726;2022-09-21T03:53:28;46259.34;;;-144.79;100.00
19827;BME280;10074;52.018;4.726;2022-09-21T03:58:28;46267.38;;;-144.79;100.00
19827;BME280;10074;52.018;4.726;2022-09-21T04:03:29;46265.38;;;-144.79;100.00
19827;BME280;10074;52.018;4.726;2022-09-21T04:08:29;46261.34;;;-144.79;100.00
19827;BME280;10074;52.018;4.726;2022-09-21T04:13:32;46251.34;;;-144.79;100.00
19827;BME280;10074;52.018;4.726;2022-09-21T04:18:35;46259.34;;;-144.79;100.00
19827;BME280;10074;52.018;4.726;2022-09-21T04:23:35;46265.38;;;-144.79;100.00
19827;BME280;10074;52.018;4.726;2022-09-21T04:28:35;46259.34;;;-144.79;100.00
19827;BME280;10074;52.018;4.726;2022-09-21T04:33:36;46263.38;;;-144.79;100.00
19827;BME280;10074;52.018;4.726;2022-09-21T04:38:36;46265.38;;;-144.79;100.00
19827;BME280;10074;52.018;4.726;2022-09-21T04:43:39;46269.38;;;-144.79;100.00
19827;BME280;10074;52.018;4.726;2022-09-21T04:48:40;46261.34;;;-144.79;100.00
19827;BME280;10074;52.018;4.726;2022-09-21T04:53:42;46251.34;;;-144.79;100.00
19827;BME280;10074;52.018;4.726;2022-09-21T04:58:43;46255.34;;;-144.79;100.00
19827;BME280;10074;52.018;4.726;2022-09-21T05:03:43;46263.38;;;-144.79;100.00
19827;BME280;10074;52.018;4.726;2022-09-21T05:08:43;46257.34;;;-144.79;100.00
19827;BME280;10074;52.018;4.726;2022-09-21T05:14:02;46255.34;;;-144.79;100.00
19827;BME280;10074;52.018;4.726;2022-09-21T05:19:03;46259.34;;;-144.79;100.00
19827;BME280;10074;52.018;4.726;2022-09-21T05:24:04;46263.38;;;-144.79;100.00
19827;BME280;10074;52.018;4.726;2022-09-21T05:29:04;46257.34;;;-144.79;100.00
19827;BME280;10074;52.018;4.726;2022-09-21T05:39:29;46253.34;;;-144.79;100.00
19827;BME280;10074;52.018;4.726;2022-09-21T05:44:30;46253.34;;;-144.79;100.00
19827;BME280;10074;52.018;4.726;2022-09-21T05:55:01;46255.34;;;-144.79;100.00
19827;BME280;10074;52.018;4.726;2022-09-21T06:00:15;46255.34;;;-144.79;100.00
19827;BME280;10074;52.018;4.726;2022-09-21T06:05:17;46255.34;;;-144.79;100.00
19827;BME280;10074;52.018;4.726;2022-09-21T06:10:17;46253.34;;;-144.79;100.00
19827;BME280;10074;52.018;4.726;2022-09-21T06:15:18;46255.34;;;-144.79;100.00
19827;BME280;10074;52.018;4.726;2022-09-21T06:20:18;46255.34;;;-144.79;100.00
19827;BME280;10074;52.018;4.726;2022-09-21T06:25:18;46257.34;;;-144.79;100.00
19827;BME280;10074;52.018;4.726;2022-09-21T06:30:19;46255.34;;;-144.79;100.00
19827;BME280;10074;52.018;4.726;2022-09-21T06:35:19;46265.38;;;-144.79;100.00
19827;BME280;10074;52.018;4.726;2022-09-21T06:40:19;46255.34;;;-144.79;100.00
19827;BME280;10074;52.018;4.726;2022-09-21T06:45:20;46269.38;;;-144.79;100.00
19827;BME280;10074;52.018;4.726;2022-09-21T06:50:20;46259.34;;;-144.79;100.00
19827;BME280;10074;52.018;4.726;2022-09-21T06:55:21;46259.34;;;-144.79;100.00
19827;BME280;10074;52.018;4.726;2022-09-21T07:00:21;46261.34;;;-144.79;100.00
19827;BME280;10074;52.018;4.726;2022-09-21T07:05:22;46261.34;;;-144.79;100.00
19827;BME280;10074;52.018;4.726;2022-09-21T07:10:22;46263.38;;;-144.79;100.00
19827;BME280;10074;52.018;4.726;2022-09-21T07:15:23;46255.34;;;-144.79;100.00
19827;BME280;10074;52.018;4.726;2022-09-21T07:20:28;46263.38;;;-144.79;100.00
19827;BME280;10074;52.018;4.726;2022-09-21T07:25:28;46259.34;;;-144.79;100.00
19827;BME280;10074;52.018;4.726;2022-09-21T07:30:29;46259.34;;;-144.79;100.00
19827;BME280;10074;52.018;4.726;2022-09-21T07:35:29;46255.34;;;-144.79;100.00
19827;BME280;10074;52.018;4.726;2022-09-21T07:40:30;46275.41;;;-144.79;100.00
19827;BME280;10074;52.018;4.726;2022-09-21T07:45:30;46265.38;;;-144.79;100.00
19827;BME280;10074;52.018;4.726;2022-09-21T07:50:31;46259.34;;;-144.79;100.00
19827;BME280;10074;52.018;4.726;2022-09-21T07:55:35;46259.34;;;-144.79;100.00
19827;BME280;10074;52.018;4.726;2022-09-21T08:00:35;46251.34;;;-144.79;100.00
19827;BME280;10074;52.018;4.726;2022-09-21T08:05:37;46265.38;;;-144.79;100.00
19827;BME280;10074;52.018;4.726;2022-09-21T08:10:37;46263.38;;;-144.79;100.00
19827;BME280;10074;52.018;4.726;2022-09-21T08:15:38;46271.38;;;-144.79;100.00
19827;BME280;10074;52.018;4.726;2022-09-21T08:20:38;46261.34;;;-144.79;100.00
19827;BME280;10074;52.018;4.726;2022-09-21T08:25:39;46255.34;;;-144.79;100.00
19827;BME280;10074;52.018;4.726;2022-09-21T08:30:40;46255.34;;;-144.79;100.00
19827;BME280;10074;52.018;4.726;2022-09-21T08:35:41;46255.34;;;-144.79;100.00
19827;BME280;10074;52.018;4.726;2022-09-21T08:40:41;46259.34;;;-144.79;100.00
19827;BME280;10074;52.018;4.726;2022-09-21T08:45:43;46259.34;;;-144.79;100.00
19827;BME280;10074;52.018;4.726;2022-09-21T08:51:12;46251.34;;;-144.79;100.00
19827;BME280;10074;52.018;4.726;2022-09-21T08:56:14;46251.34;;;-144.79;100.00
19827;BME280;10074;52.018;4.726;2022-09-21T09:12:24;46255.34;;;-144.79;100.00
19827;BME280;10074;52.018;4.726;2022-09-21T09:29:08;46235.28;;;-144.79;100.00
19827;BME280;10074;52.018;4.726;2022-09-21T09:34:51;46223.25;;;-144.79;100.00
19827;BME280;10074;52.018;4.726;2022-09-21T09:39:56;46237.31;;;-144.79;100.00
19827;BME280;10074;52.018;4.726;2022-09-21T09:50:34;46231.28;;;-144.79;100.00
19827;BME280;10074;52.018;4.726;2022-09-21T09:55:38;46231.28;;;-144.79;100.00
19827;BME280;10074;52.018;4.726;2022-09-21T10:00:39;46233.28;;;-144.79;100.00
19827;BME280;10074;52.018;4.726;2022-09-21T10:05:39;46229.28;;;-144.79;100.00
19827;BME280;10074;52.018;4.726;2022-09-21T10:10:41;46231.28;;;-144.79;100.00
19827;BME280;10074;52.018;4.726;2022-09-21T10:15:47;46219.25;;;-144.79;100.00
19827;BME280;10074;52.018;4.726;2022-09-21T10:21:01;46229.28;;;-144.79;100.00
19827;BME280;10074;52.018;4.726;2022-09-21T10:26:06;46217.25;;;-144.79;100.00
19827;BME280;10074;52.018;4.726;2022-09-21T10:31:21;46203.22;;;-144.79;100.00
19827;BME280;10074;52.018;4.726;2022-09-21T10:36:28;46299.47;;;-144.79;88.84
19827;BME280;10074;52.018;4.726;2022-09-21T10:41:29;46331.53;;;-144.79;68.99
19827;BME280;10074;52.018;4.726;2022-09-21T10:46:33;46167.13;;;-144.79;65.30
19827;BME280;10074;52.018;4.726;2022-09-21T10:51:34;46032.78;;;-144.79;62.71
19827;BME280;10074;52.018;4.726;2022-09-21T10:56:34;45972.66;;;-144.79;60.14
19827;BME280;10074;52.018;4.726;2022-09-21T11:01:35;45956.59;;;-144.79;59.21
19827;BME280;10074;52.018;4.726;2022-09-21T11:06:43;45972.66;;;-144.79;58.60
19827;BME280;10074;52.018;4.726;2022-09-21T11:17:31;46696.47;;;-144.79;66.17
19827;BME280;10074;52.018;4.726;2022-09-21T11:22:45;46688.47;;;-144.79;97.29
19827;BME280;10074;52.018;4.726;2022-09-21T11:27:55;46253.34;;;-144.79;100.00
19827;BME280;10074;52.018;4.726;2022-09-21T11:33:15;46151.09;;;-144.79;100.00
19827;BME280;10074;52.018;4.726;2022-09-21T11:59:52;46157.09;;;-144.79;100.00
19827;BME280;10074;52.018;4.726;2022-09-21T12:15:22;46177.16;;;-144.79;100.00
19827;BME280;10074;52.018;4.726;2022-09-21T12:20:41;46177.16;;;-144.79;100.00
19827;BME280;10074;52.018;4.726;2022-09-21T12:25:48;46167.13;;;-144.79;100.00
19827;BME280;10074;52.018;4.726;2022-09-21T12:30:54;46201.22;;;-144.79;100.00
19827;BME280;10074;52.018;4.726;2022-09-21T12:36:32;46203.22;;;-144.79;100.00
19827;BME280;10074;52.018;4.726;2022-09-21T12:41:41;46195.19;;;-144.79;100.00
19827;BME280;10074;52.018;4.726;2022-09-21T12:47:05;46189.19;;;-144.79;100.00
19827;BME280;10074;52.018;4.726;2022-09-21T12:52:21;46191.19;;;-144.79;100.00
19827;BME280;10074;52.018;4.726;2022-09-21T13:02:57;46183.16;;;-144.79;100.00
19827;BME280;10074;52.018;4.726;2022-09-21T13:08:09;46199.19;;;-144.79;100.00
19827;BME280;10074;52.018;4.726;2022-09-21T13:18:39;46215.25;;;-144.79;100.00
19827;BME280;10074;52.018;4.726;2022-09-21T13:23:40;46217.25;;;-144.79;100.00
19827;BME280;10074;52.018;4.726;2022-09-21T13:39:17;46205.22;;;-144.79;100.00
19827;BME280;10074;52.018;4.726;2022-09-21T13:44:38;46195.19;;;-144.79;100.00
19827;BME280;10074;52.018;4.726;2022-09-21T13:49:44;46183.16;;;-144.79;100.00
19827;BME280;10074;52.018;4.726;2022-09-21T13:54:59;46187.19;;;-144.79;100.00
19827;BME280;10074;52.018;4.726;2022-09-21T14:05:30;46195.19;;;-144.79;100.00
19827;BME280;10074;52.018;4.726;2022-09-21T14:10:34;46191.19;;;-144.79;100.00
19827;BME280;10074;52.018;4.726;2022-09-21T14:15:38;46195.19;;;-144.79;100.00
19827;BME280;10074;52.018;4.726;2022-09-21T14:20:38;46201.22;;;-144.79;100.00
19827;BME280;10074;52.018;4.726;2022-09-21T14:25:55;46191.19;;;-144.79;100.00
19827;BME280;10074;52.018;4.726;2022-09-21T14:31:00;46205.22;;;-144.79;100.00
19827;BME280;10074;52.018;4.726;2022-09-21T14:36:05;46211.22;;;-144.79;100.00
19827;BME280;10074;52.018;4.726;2022-09-21T14:41:08;46205.22;;;-144.79;100.00
19827;BME280;10074;52.018;4.726;2022-09-21T14:46:46;46203.22;;;-144.79;100.00
19827;BME280;10074;52.018;4.726;2022-09-21T14:51:59;46195.19;;;-144.79;100.00
19827;BME280;10074;52.018;4.726;2022-09-21T15:02:16;46213.25;;;-144.79;100.00
19827;BME280;10074;52.018;4.726;2022-09-21T15:07:27;46211.22;;;-144.79;100.00
19827;BME280;10074;52.018;4.726;2022-09-21T15:12:59;46207.22;;;-144.79;100.00
19827;BME280;10074;52.018;4.726;2022-09-21T15:18:01;46203.22;;;-144.79;100.00
19827;BME280;10074;52.018;4.726;2022-09-21T15:23:17;46205.22;;;-144.79;100.00
19827;BME280;10074;52.018;4.726;2022-09-21T15:28:18;46207.22;;;-144.79;100.00
19827;BME280;10074;52.018;4.726;2022-09-21T15:33:19;46207.22;;;-144.79;100.00
19827;BME280;10074;52.018;4.726;2022-09-21T15:38:29;46211.22;;;-144.79;100.00
19827;BME280;10074;52.018;4.726;2022-09-21T15:43:31;46203.22;;;-144.79;100.00
19827;BME280;10074;52.018;4.726;2022-09-21T15:48:36;46211.22;;;-144.79;100.00
19827;BME280;10074;52.018;4.726;2022-09-21T15:53:42;46235.28;;;-144.79;100.00
19827;BME280;10074;52.018;4.726;2022-09-21T15:58:43;46219.25;;;-144.79;100.00
19827;BME280;10074;52.018;4.726;2022-09-21T16:03:44;46215.25;;;-144.79;100.00
19827;BME280;10074;52.018;4.726;2022-09-21T16:08:45;46201.22;;;-144.79;100.00
19827;BME280;10074;52.018;4.726;2022-09-21T16:13:46;46219.25;;;-144.79;100.00
19827;BME280;10074;52.018;4.726;2022-09-21T16:19:06;46227.28;;;-144.79;100.00
19827;BME280;10074;52.018;4.726;2022-09-21T16:24:09;46227.28;;;-144.79;100.00
19827;BME280;10074;52.018;4.726;2022-09-21T16:29:21;46223.25;;;-144.79;100.00
19827;BME280;10074;52.018;4.726;2022-09-21T16:34:31;46217.25;;;-144.79;100.00
19827;BME280;10074;52.018;4.726;2022-09-21T16:39:36;46237.31;;;-144.79;100.00
19827;BME280;10074;52.018;4.726;2022-09-21T16:44:36;46221.25;;;-144.79;100.00
19827;BME280;10074;52.018;4.726;2022-09-21T16:49:43;46215.25;;;-144.79;100.00
19827;BME280;10074;52.018;4.726;2022-09-21T16:54:43;46221.25;;;-144.79;100.00
19827;BME280;10074;52.018;4.726;2022-09-21T16:59:46;46231.28;;;-144.79;100.00
19827;BME280;10074;52.018;4.726;2022-09-21T17:04:48;46239.31;;;-144.79;100.00
19827;BME280;10074;52.018;4.726;2022-09-21T17:09:48;46221.25;;;-144.79;100.00
19827;BME280;10074;52.018;4.726;2022-09-21T17:14:50;46231.28;;;-144.79;100.00
19827;BME280;10074;52.018;4.726;2022-09-21T17:19:52;46227.28;;;-144.79;100.00
19827;BME280;10074;52.018;4.726;2022-09-21T17:24:53;46221.25;;;-144.79;100.00
19827;BME280;10074;52.018;4.726;2022-09-21T17:29:53;46235.28;;;-144.79;100.00
19827;BME280;10074;52.018;4.726;2022-09-21T17:40:14;46237.31;;;-144.79;100.00
19827;BME280;10074;52.018;4.726;2022-09-21T17:45:31;46243.31;;;-144.79;100.00
19827;BME280;10074;52.018;4.726;2022-09-21T17:50:37;46243.31;;;-144.79;100.00
19827;BME280;10074;52.018;4.726;2022-09-21T17:55:43;46247.31;;;-144.79;100.00
19827;BME280;10074;52.018;4.726;2022-09-21T18:05:57;46247.31;;;-144.79;100.00
19827;BME280;10074;52.018;4.726;2022-09-21T18:21:36;46253.34;;;-144.79;100.00
19827;BME280;10074;52.018;4.726;2022-09-21T18:26:41;46249.34;;;-144.79;100.00
19827;BME280;10074;52.018;4.726;2022-09-21T18:42:08;46253.34;;;-144.79;100.00
19827;BME280;10074;52.018;4.726;2022-09-21T18:47:29;46255.34;;;-144.79;100.00
19827;BME280;10074;52.018;4.726;2022-09-21T18:57:55;46255.34;;;-144.79;100.00
19827;BME280;10074;52.018;4.726;2022-09-21T19:02:57;46247.31;;;-144.79;100.00
19827;BME280;10074;52.018;4.726;2022-09-21T19:08:11;46249.34;;;-144.79;100.00
19827;BME280;10074;52.018;4.726;2022-09-21T19:18:55;46255.34;;;-144.79;100.00
19827;BME280;10074;52.018;4.726;2022-09-21T19:24:06;46257.34;;;-144.79;100.00
19827;BME280;10074;52.018;4.726;2022-09-21T19:34:16;46247.31;;;-144.79;100.00
19827;BME280;10074;52.018;4.726;2022-09-21T19:39:16;46247.31;;;-144.79;100.00
19827;BME280;10074;52.018;4.726;2022-09-21T19:44:43;46241.31;;;-144.79;100.00
19827;BME280;10074;52.018;4.726;2022-09-21T19:49:51;46247.31;;;-144.79;100.00
19827;BME280;10074;52.018;4.726;2022-09-21T19:54:56;46245.31;;;-144.79;100.00
19827;BME280;10074;52.018;4.726;2022-09-21T20:00:16;46253.34;;;-144.79;100.00
19827;BME280;10074;52.018;4.726;2022-09-21T20:05:22;46247.31;;;-144.79;100.00
19827;BME280;10074;52.018;4.726;2022-09-21T20:10:36;46257.34;;;-144.79;100.00
19827;BME280;10074;52.018;4.726;2022-09-21T20:15:47;46253.34;;;-144.79;100.00
19827;BME280;10074;52.018;4.726;2022-09-21T20:20:48;46255.34;;;-144.79;100.00
19827;BME280;10074;52.018;4.726;2022-09-21T20:25:55;46253.34;;;-144.79;100.00
19827;BME280;10074;52.018;4.726;2022-09-21T20:30:58;46251.34;;;-144.79;100.00
19827;BME280;10074;52.018;4.726;2022-09-21T20:35:59;46249.34;;;-144.79;100.00
19827;BME280;10074;52.018;4.726;2022-09-21T20:41:01;46249.34;;;-144.79;100.00
19827;BME280;10074;52.018;4.726;2022-09-21T20:46:04;46253.34;;;-144.79;100.00
19827;BME280;10074;52.018;4.726;2022-09-21T20:51:04;46253.34;;;-144.79;100.00
19827;BME280;10074;52.018;4.726;2022-09-21T20:56:05;46255.34;;;-144.79;100.00
19827;BME280;10074;52.018;4.726;2022-09-21T21:01:06;46251.34;;;-144.79;100.00
19827;BME280;10074;52.018;4.726;2022-09-21T21:06:13;46249.34;;;-144.79;100.00
19827;BME280;10074;52.018;4.726;2022-09-21T21:11:13;46249.34;;;-144.79;100.00
19827;BME280;10074;52.018;4.726;2022-09-21T21:16:13;46259.34;;;-144.79;100.00
19827;BME280;10074;52.018;4.726;2022-09-21T21:21:14;46245.31;;;-144.79;100.00
19827;BME280;10074;52.018;4.726;2022-09-21T21:26:14;46251.34;;;-144.79;100.00
19827;BME280;10074;52.018;4.726;2022-09-21T21:31:14;46251.34;;;-144.79;100.00
19827;BME280;10074;52.018;4.726;2022-09-21T21:36:15;46241.31;;;-144.79;100.00
19827;BME280;10074;52.018;4.726;2022-09-21T21:41:15;46255.34;;;-144.79;100.00
19827;BME280;10074;52.018;4.726;2022-09-21T21:46:15;46247.31;;;-144.79;100.00
19827;BME280;10074;52.018;4.726;2022-09-21T21:51:16;46253.34;;;-144.79;100.00
19827;BME280;10074;52.018;4.726;2022-09-21T21:56:17;46247.31;;;-144.79;100.00
19827;BME280;10074;52.018;4.726;2022-09-21T22:01:23;46251.34;;;-144.79;100.00
19827;BME280;10074;52.018;4.726;2022-09-21T22:06:25;46251.34;;;-144.79;100.00
19827;BME280;10074;52.018;4.726;2022-09-21T22:11:26;46253.34;;;-144.79;100.00
19827;BME280;10074;52.018;4.726;2022-09-21T22:16:29;46255.34;;;-144.79;100.00
19827;BME280;10074;52.018;4.726;2022-09-21T22:21:33;46259.34;;;-144.79;100.00
19827;BME280;10074;52.018;4.726;2022-09-21T22:26:39;46251.34;;;-144.79;100.00
19827;BME280;10074;52.018;4.726;2022-09-21T22:31:42;46245.31;;;-144.79;100.00
19827;BME280;10074;52.018;4.726;2022-09-21T22:36:43;46251.34;;;-144.79;100.00
19827;BME280;10074;52.018;4.726;2022-09-21T22:41:43;46251.34;;;-144.79;100.00
19827;BME280;10074;52.018;4.726;2022-09-21T22:46:43;46247.31;;;-144.79;100.00
19827;BME280;10074;52.018;4.726;2022-09-21T22:51:44;46257.34;;;-144.79;100.00
19827;BME280;10074;52.018;4.726;2022-09-21T22:56:44;46243.31;;;-144.79;100.00
19827;BME280;10074;52.018;4.726;2022-09-21T23:01:44;46251.34;;;-144.79;100.00
19827;BME280;10074;52.018;4.726;2022-09-21T23:06:44;46245.31;;;-144.79;100.00
19827;BME280;10074;52.018;4.726;2022-09-21T23:11:47;46241.31;;;-144.79;100.00
19827;BME280;10074;52.018;4.726;2022-09-21T23:16:47;46251.34;;;-144.79;100.00
19827;BME280;10074;52.018;4.726;2022-09-21T23:21:49;46245.31;;;-144.79;100.00
19827;BME280;10074;52.018;4.726;2022-09-21T23:26:50;46239.31;;;-144.79;100.00
19827;BME280;10074;52.018;4.726;2022-09-21T23:31:50;46249.34;;;-144.79;100.00
19827;BME280;10074;52.018;4.726;2022-09-21T23:36:51;46233.28;;;-144.79;100.00
19827;BME280;10074;52.018;4.726;2022-09-21T23:41:51;46241.31;;;-144.79;100.00
19827;BME280;10074;52.018;4.726;2022-09-21T23:46:51;46235.28;;;-144.79;100.00
19827;BME280;10074;52.018;4.726;2022-09-21T23:51:51;46239.31;;;-144.79;100.00
19827;BME280;10074;52.018;4.726;2022-09-21T23:56:52;46247.31;;;-144.79;100.00
